Latest Weather Observations for Launceston

IDT60801

Issued at 4:31 pm EST Tuesday 3 May 2016 (issued every 30 minutes, with the page automatically refreshed every 10 minutes)

About weather observations | Map of weather stations | Latest weather observations for TAS | Other Formats
Station Details ID: 091237 Name: LAUNCESTON (TI TREE BEND) Lat: -41.42 Lon: 147.12 Height: 5.0 m
Data from the previous 72 hours. | See also: Recent months at Launceston
Date/Time
EST
Temp
°C
App
Temp
°C
Dew
Point
Rel
Hum
%
Delta-T
°C
Wind Press
QNH
hPa
Press
MSL
hPa
Rain
since 9 am
mm
Dir
 
Spd
km/h
Gust
km/h
Spd
kts
Gust
kts
03/04:30pm 11.0 8.0 9.1 88 0.9 NNW 15 20 8 11 - - 13.8
03/04:00pm 11.3 7.4 8.7 84 1.3 NW 19 28 10 15 - - 13.6
03/03:30pm 12.2 9.4 10.1 87 1.1 NW 15 26 8 14 - - 13.0
03/03:00pm 12.7 9.1 9.9 83 1.4 NNW 19 28 10 15 - - 13.0
03/02:30pm 13.1 8.9 9.9 81 1.6 NNW 22 32 12 17 - - 13.0
03/02:00pm 12.9 9.1 9.9 82 1.5 NNW 20 32 11 17 - - 13.0
03/01:30pm 13.6 8.0 10.0 79 1.9 NW 30 43 16 23 - - 12.6
03/01:00pm 13.8 10.2 12.0 89 1.0 NNW 22 33 12 18 - - 12.6
03/12:30pm 13.7 10.3 12.4 92 0.7 NNW 22 32 12 17 - - 12.4
03/12:00pm 14.0 9.9 12.7 92 0.7 NNW 26 41 14 22 - - 12.2
03/11:30am 13.9 8.0 12.5 91 0.8 NW 35 63 19 34 - - 11.4
03/11:23am 14.4 9.3 13.8 96 0.3 NW 33 52 18 28 - - 10.0
03/11:00am 14.0 9.0 13.4 96 0.3 NW 32 44 17 24 - - 6.8
03/10:30am 14.0 8.4 13.4 96 0.3 NNW 35 48 19 26 - - 3.0
03/10:00am 13.7 8.5 12.9 95 0.4 NNW 32 46 17 25 - - 1.4
03/09:30am 13.6 8.4 12.8 95 0.4 NNW 32 50 17 27 - - 1.0
03/09:26am 13.5 8.6 12.7 95 0.4 NNW 30 50 16 27 - - 0.8
03/09:00am 13.5 8.6 12.6 94 0.5 NNW 30 44 16 24 - - 15.2
03/08:30am 13.3 10.0 12.7 96 0.3 NNW 22 35 12 19 - - 14.2
03/08:00am 13.3 9.1 12.4 94 0.5 NNW 26 43 14 23 - - 12.8
03/07:31am 13.4 8.3 12.0 91 0.8 NNW 30 50 16 27 - - 12.2
03/07:30am 13.3 7.8 11.9 91 0.7 NNW 32 50 17 27 - - 12.2
03/07:00am 15.4 7.9 12.7 84 1.5 NNW 44 83 24 45 - - 9.2
03/06:30am 16.0 9.0 12.4 79 2.0 NNW 41 69 22 37 - - 8.8
03/06:00am 15.5 7.9 12.4 82 1.7 NNW 44 67 24 36 - - 8.6
03/05:30am 16.1 7.5 11.5 74 2.5 NNW 48 76 26 41 - - 8.4
03/05:00am 15.9 8.1 11.3 74 2.5 NNW 43 74 23 40 - - 8.4
03/04:30am 15.7 7.3 11.1 74 2.5 NNW 46 72 25 39 - - 8.2
03/04:00am 16.1 7.7 11.1 72 2.7 NNW 46 70 25 38 - - 8.2
03/03:30am 15.9 7.8 10.9 72 2.7 NNW 44 70 24 38 - - 8.2
03/03:00am 16.2 8.5 10.3 68 3.1 NNW 41 74 22 40 - - 8.2
03/02:30am 16.0 8.7 10.3 69 3.0 NNW 39 57 21 31 - - 8.2
03/02:00am 16.1 8.5 10.6 70 2.9 NNW 41 69 22 37 - - 8.2
03/01:30am 16.0 8.1 10.7 71 2.8 NNW 43 65 23 35 - - 8.2
03/01:00am 16.1 8.9 10.6 70 2.9 NNW 39 61 21 33 - - 8.2
03/12:36am 15.7 8.5 10.7 72 2.7 NNW 39 57 21 31 - - 8.2
03/12:30am 16.0 9.5 10.5 70 2.9 NNW 35 54 19 29 - - 8.2
03/12:00am 16.1 8.1 10.6 70 2.9 NNW 43 63 23 34 - - 8.2
 
Date/Time
EST
Temp
°C
App
Temp
°C
Dew
Point
Rel
Hum
%
Delta-T
°C
Wind Press
QNH
hPa
Press
MSL
hPa
Rain
since 9 am
mm
Dir
 
Spd
km/h
Gust
km/h
Spd
kts
Gust
kts
02/11:30pm 15.9 8.2 10.2 69 3.0 NNW 41 61 22 33 - - 8.2
02/11:04pm 15.7 8.1 10.5 71 2.7 NNW 41 59 22 32 - - 8.2
02/11:00pm 15.6 7.6 10.4 71 2.7 NNW 43 59 23 32 - - 8.2
02/10:30pm 14.7 8.0 10.9 78 2.0 NNW 37 67 20 36 - - 7.8
02/10:05pm 15.5 9.1 10.7 73 2.5 NNW 35 54 19 29 - - 7.8
02/10:00pm 15.8 9.8 10.8 72 2.7 NNW 33 52 18 28 - - 7.8
02/09:47pm 15.7 9.3 10.7 72 2.7 NNW 35 54 19 29 - - 7.8
02/09:30pm 15.4 9.0 10.8 74 2.4 NNW 35 50 19 27 - - 7.8
02/09:00pm 15.3 9.3 10.9 75 2.3 NNW 33 52 18 28 - - 7.8
02/08:54pm 15.9 9.9 10.7 71 2.8 NNW 33 52 18 28 - - 7.8
02/08:30pm 15.1 10.1 11.1 77 2.1 NNW 28 41 15 22 - - 7.8
02/08:03pm 13.9 8.2 11.8 87 1.1 NNW 33 52 18 28 - - 7.8
02/08:00pm 13.9 7.8 11.8 87 1.1 NNW 35 52 19 28 - - 7.8
02/07:30pm 14.2 7.8 10.8 80 1.8 NNW 35 61 19 33 - - 6.6
02/07:00pm 14.8 8.9 10.6 76 2.2 NNW 32 57 17 31 - - 6.2
02/06:30pm 14.8 8.7 10.4 75 2.3 NNW 33 54 18 29 - - 6.2
02/06:14pm 14.7 8.8 10.3 75 2.3 NNW 32 50 17 27 - - 6.2
02/06:00pm 14.2 9.2 10.8 80 1.8 NNW 28 39 15 21 - - 6.2
02/05:30pm 13.3 8.7 11.2 87 1.1 NNW 26 43 14 23 - - 6.2
02/05:00pm 13.3 8.4 11.4 88 1.0 NNW 28 43 15 23 - - 6.0
02/04:30pm 14.0 8.3 11.0 82 1.6 NNW 32 50 17 27 - - 5.4
02/04:00pm 14.8 7.5 10.2 74 2.4 NNW 39 65 21 35 - - 5.4
02/03:37pm 14.9 9.4 10.5 75 2.3 NNW 30 48 16 26 - - 5.4
02/03:30pm 14.8 9.8 10.8 77 2.1 NNW 28 46 15 25 - - 5.4
02/03:09pm 14.9 8.8 10.5 75 2.3 NNW 33 54 18 29 - - 5.4
02/03:00pm 15.2 9.4 10.8 75 2.3 NNW 32 48 17 26 - - 5.4
02/02:57pm 15.1 10.1 10.9 76 2.2 NNW 28 48 15 26 - - 5.4
02/02:30pm 13.7 9.7 11.9 89 1.0 NW 24 44 13 24 - - 5.4
02/02:12pm 14.2 9.3 11.4 83 1.5 NNW 28 50 15 27 - - 5.2
02/02:00pm 13.8 10.3 12.2 90 0.9 NW 22 39 12 21 - - 5.2
02/01:30pm 12.6 9.8 11.5 93 0.6 NW 17 24 9 13 - - 5.2
02/01:00pm 12.6 9.4 11.2 91 0.7 NW 19 26 10 14 - - 2.4
02/12:30pm 14.1 10.1 10.5 79 1.9 NNW 22 32 12 17 - - 0.0
02/12:00pm 14.3 9.8 9.9 75 2.3 NNW 24 37 13 20 - - 0.0
02/11:30am 14.7 10.3 9.1 69 2.9 NNW 22 32 12 17 - - 0.0
02/11:00am 15.0 11.1 9.6 70 2.8 NNW 20 32 11 17 - - 0.0
02/10:30am 14.7 9.9 8.9 68 2.9 NNW 24 37 13 20 - - 0.0
02/10:00am 14.1 10.1 9.1 72 2.5 NNW 20 32 11 17 - - 0.0
02/09:30am 13.3 9.2 8.8 74 2.3 N 20 32 11 17 - - 0.0
02/09:00am 12.2 9.8 8.5 78 1.8 NNW 11 19 6 10 - - 2.4
02/08:30am 11.8 8.7 7.3 74 2.2 NNW 13 20 7 11 - - 2.4
02/08:00am 9.1 7.5 6.2 82 1.3 WNW 4 7 2 4 - - 2.4
02/07:30am 9.1 7.5 6.2 82 1.3 NW 4 6 2 3 - - 2.4
02/07:00am 9.2 7.0 6.1 81 1.4 NW 7 9 4 5 - - 2.4
02/06:30am 9.1 6.8 5.7 79 1.5 NW 7 11 4 6 - - 2.4
02/06:00am 9.1 6.3 5.3 77 1.7 NW 9 13 5 7 - - 2.4
02/05:30am 9.1 6.6 4.9 75 1.9 NW 7 13 4 7 - - 2.4
02/05:00am 9.3 5.8 5.3 76 1.8 NW 13 19 7 10 - - 2.4
02/04:30am 9.0 5.8 5.2 77 1.7 NW 11 17 6 9 - - 2.4
02/04:00am 8.8 5.7 5.4 79 1.5 NW 11 17 6 9 - - 2.4
02/03:30am 8.4 5.9 5.0 79 1.5 NW 7 13 4 7 - - 2.4
02/03:00am 8.6 4.7 5.4 80 1.4 NNW 15 19 8 10 - - 2.4
02/02:30am 9.3 4.6 5.1 75 1.9 NNW 19 28 10 15 - - 2.4
02/02:00am 9.1 5.1 4.9 75 1.9 NW 15 22 8 12 - - 2.4
02/01:30am 9.2 5.2 4.8 74 2.0 NW 15 22 8 12 - - 2.4
02/01:00am 8.8 5.1 4.6 75 1.9 NNW 13 17 7 9 - - 2.4
02/12:30am 9.2 5.6 4.8 74 2.0 NW 13 17 7 9 - - 2.4
02/12:00am 9.8 5.4 4.8 71 2.2 NW 17 24 9 13 - - 2.4
 
Date/Time
EST
Temp
°C
App
Temp
°C
Dew
Point
Rel
Hum
%
Delta-T
°C
Wind Press
QNH
hPa
Press
MSL
hPa
Rain
since 9 am
mm
Dir
 
Spd
km/h
Gust
km/h
Spd
kts
Gust
kts
01/11:30pm 9.7 5.4 5.3 74 2.0 NW 17 24 9 13 - - 2.4
01/11:00pm 10.3 6.0 5.3 71 2.3 NNW 17 28 9 15 - - 2.4
01/10:30pm 10.2 7.0 5.0 70 2.3 NNW 11 17 6 9 - - 2.4
01/10:00pm 10.2 5.6 5.6 73 2.1 NNW 19 28 10 15 - - 2.4
01/09:30pm 10.7 6.1 5.5 70 2.4 NNW 19 30 10 16 - - 2.4
01/09:00pm 11.4 6.4 4.8 64 3.0 NW 20 28 11 15 - - 2.4
01/08:30pm 12.1 7.6 4.3 59 3.5 NNW 17 30 9 16 - - 2.4
01/08:00pm 12.0 7.7 5.4 64 3.1 NNW 17 30 9 16 - - 2.4
01/07:30pm 12.3 8.1 5.5 63 3.2 NNW 17 33 9 18 - - 2.4
01/07:00pm 12.6 7.7 5.3 61 3.4 NW 20 32 11 17 - - 2.4
01/06:30pm 12.6 8.5 6.4 66 2.9 NW 17 24 9 13 - - 2.4
01/06:00pm 12.5 8.5 6.8 68 2.7 NNW 17 24 9 13 - - 2.4
01/05:30pm 12.8 7.7 6.2 64 3.1 NNW 22 32 12 17 - - 2.4
01/05:00pm 13.1 7.9 5.5 60 3.6 NW 22 41 12 22 - - 2.4
01/04:30pm 13.1 8.3 5.5 60 3.6 NW 20 35 11 19 - - 2.4
01/04:00pm 13.3 8.7 5.5 59 3.7 NW 19 39 10 21 - - 2.4
01/03:30pm 13.2 6.6 6.1 62 3.4 NW 30 44 16 24 - - 2.4
01/03:01pm 13.5 7.1 7.1 65 3.1 NW 30 50 16 27 - - 2.4
01/03:00pm 13.5 6.7 6.8 64 3.2 NW 32 50 17 27 - - 2.4
01/02:30pm 14.4 8.4 7.2 62 3.5 WNW 28 50 15 27 - - 2.4
01/02:08pm 14.7 9.1 10.1 74 2.4 NW 30 50 16 27 - - 2.4
01/02:00pm 14.4 9.2 11.6 83 1.5 NNW 30 43 16 23 - - 2.4
01/01:30pm 15.1 9.5 12.1 82 1.6 NNW 33 52 18 28 - - 2.4
01/01:14pm 15.6 10.3 12.5 82 1.7 NNW 32 52 17 28 - - 2.4
01/01:00pm 15.4 10.1 12.5 83 1.6 NNW 32 46 17 25 - - 2.4
01/12:30pm 15.9 11.4 13.9 88 1.1 NNW 30 50 16 27 - - 2.4
01/12:19pm 14.8 10.1 13.2 90 0.9 NNW 30 50 16 27 - - 2.4
01/12:00pm 15.5 10.6 12.6 83 1.6 N 30 43 16 23 - - 2.2
01/11:34am 15.8 11.3 12.5 81 1.8 N 28 48 15 26 - - 2.2
01/11:30am 15.9 12.1 12.5 80 1.9 N 24 37 13 20 - - 2.2
01/11:00am 13.6 12.3 12.5 93 0.6 NNW 11 20 6 11 - - 2.2
01/10:30am 14.6 11.7 12.8 89 1.0 NNW 20 56 11 30 - - 1.4
01/10:00am 15.3 13.4 13.0 86 1.3 N 15 26 8 14 - - 0.0
01/09:30am 14.7 12.8 12.9 89 1.0 NW 15 24 8 13 - - 0.0
01/09:00am 13.9 13.8 13.3 96 0.3 WNW 6 9 3 5 - - 10.2
01/08:30am 13.8 14.0 12.9 94 0.5 ENE 4 11 2 6 - - 10.2
01/08:00am 13.8 13.1 13.2 96 0.3 N 9 15 5 8 - - 8.8
01/07:30am 13.8 13.0 13.0 95 0.4 NNW 9 15 5 8 - - 6.6
01/07:00am 14.2 11.5 12.8 91 0.8 NW 19 30 10 16 - - 5.0
01/06:46am 15.2 8.9 12.2 82 1.6 NW 37 59 20 32 - - 3.0
01/06:41am 16.3 10.8 12.3 77 2.2 NNW 33 59 18 32 - - 1.4
01/06:38am 17.4 12.4 12.3 72 2.8 N 30 59 16 32 - - 0.8
01/06:30am 19.0 15.8 13.2 69 3.3 NNE 22 35 12 19 - - 0.8
01/06:00am 17.7 17.9 14.2 80 2.0 NNW 6 11 3 6 - - 0.8
01/05:30am 16.7 17.2 14.0 84 1.5 WNW 4 7 2 4 - - 0.8
01/05:00am 17.3 17.2 14.0 81 1.9 NNW 7 13 4 7 - - 0.8
01/04:30am 18.6 16.8 14.5 77 2.4 NNW 17 24 9 13 - - 0.8
01/04:00am 18.0 16.7 14.7 81 1.9 NW 15 24 8 13 - - 0.8
01/03:30am 18.0 17.1 14.9 82 1.8 NW 13 24 7 13 - - 0.8
01/03:00am 17.5 16.5 14.6 83 1.7 WNW 13 20 7 11 - - 0.8
01/02:30am 17.7 16.8 14.8 83 1.7 NW 13 19 7 10 - - 0.8
01/02:00am 17.2 17.3 14.5 84 1.6 NW 7 13 4 7 - - 0.8
01/01:30am 18.2 17.0 15.1 82 1.8 NW 15 22 8 12 - - 0.8
01/01:00am 17.8 17.7 14.9 83 1.7 WNW 9 15 5 8 - - 0.8
01/12:30am 18.1 17.7 15.2 83 1.7 WNW 11 17 6 9 - - 0.8
01/12:00am 17.9 17.5 15.3 85 1.5 NW 11 20 6 11 - - 0.8
 
Date/Time
EST
Temp
°C
App
Temp
°C
Dew
Point
Rel
Hum
%
Delta-T
°C
Wind Press
QNH
hPa
Press
MSL
hPa
Rain
since 9 am
mm
Dir
 
Spd
km/h
Gust
km/h
Spd
kts
Gust
kts
30/11:30pm 17.9 16.8 15.3 85 1.5 NW 15 22 8 12 - - 0.8
30/11:00pm 17.7 17.3 15.1 85 1.5 NW 11 17 6 9 - - 0.8
30/10:30pm 17.8 17.4 15.2 85 1.5 NW 11 19 6 10 - - 0.8
30/10:00pm 17.6 17.9 15.0 85 1.5 NW 7 13 4 7 - - 0.8
30/09:30pm 17.8 16.9 14.9 83 1.7 NNW 13 24 7 13 - - 0.8
30/09:00pm 17.4 17.3 15.0 86 1.4 NW 9 15 5 8 - - 0.8
30/08:30pm 17.1 17.4 14.9 87 1.3 NNW 7 13 4 7 - - 0.8
30/08:00pm 17.3 17.3 15.1 87 1.3 NW 9 19 5 10 - - 0.8
30/07:30pm 17.1 17.0 14.9 87 1.3 NW 9 13 5 7 - - 0.8
30/07:00pm 17.2 17.6 15.2 88 1.2 NW 7 9 4 5 - - 0.8
30/06:30pm 17.4 17.5 15.4 88 1.2 NW 9 13 5 7 - - 0.8
30/06:00pm 17.4 17.1 15.4 88 1.2 NNW 11 15 6 8 - - 0.8
30/05:30pm 17.6 17.3 15.4 87 1.3 NNW 11 17 6 9 - - 0.8
30/05:00pm 17.9 17.2 15.5 86 1.4 NNW 13 17 7 9 - - 0.8

Other Formats:

Comma delimited format used in spreadsheet applications
http://www.bom.gov.au/fwo/IDT60801/IDT60801.94969.axf

JavaScript Object Notation format (JSON) in row-major order
http://www.bom.gov.au/fwo/IDT60801/IDT60801.94969.json